sensor_id;sensor_type;location;lat;lon;timestamp;P1;durP1;ratioP1;P2;durP2;ratioP2
2966;SDS011;1493;51.496;7.210;2022-09-21T00:01:51;4.50;;;3.03;;
2966;SDS011;1493;51.496;7.210;2022-09-21T00:04:18;5.37;;;3.20;;
2966;SDS011;1493;51.496;7.210;2022-09-21T00:06:45;4.60;;;3.27;;
2966;SDS011;1493;51.496;7.210;2022-09-21T00:09:11;3.90;;;3.03;;
2966;SDS011;1493;51.496;7.210;2022-09-21T00:11:38;4.87;;;3.00;;
2966;SDS011;1493;51.496;7.210;2022-09-21T00:14:08;6.07;;;3.43;;
2966;SDS011;1493;51.496;7.210;2022-09-21T00:16:37;5.10;;;3.07;;
2966;SDS011;1493;51.496;7.210;2022-09-21T00:19:04;4.70;;;3.10;;
2966;SDS011;1493;51.496;7.210;2022-09-21T00:21:31;6.23;;;3.87;;
2966;SDS011;1493;51.496;7.210;2022-09-21T00:23:59;5.73;;;3.83;;
2966;SDS011;1493;51.496;7.210;2022-09-21T00:26:27;4.40;;;3.30;;
2966;SDS011;1493;51.496;7.210;2022-09-21T00:28:54;6.10;;;3.77;;
2966;SDS011;1493;51.496;7.210;2022-09-21T00:31:24;6.43;;;3.37;;
2966;SDS011;1493;51.496;7.210;2022-09-21T00:33:51;6.17;;;3.67;;
2966;SDS011;1493;51.496;7.210;2022-09-21T00:36:19;4.87;;;3.20;;
2966;SDS011;1493;51.496;7.210;2022-09-21T00:38:48;4.90;;;3.00;;
2966;SDS011;1493;51.496;7.210;2022-09-21T00:41:16;6.67;;;3.90;;
2966;SDS011;1493;51.496;7.210;2022-09-21T00:43:45;4.20;;;3.23;;
2966;SDS011;1493;51.496;7.210;2022-09-21T00:46:14;6.30;;;3.37;;
2966;SDS011;1493;51.496;7.210;2022-09-21T00:48:50;5.53;;;3.07;;
2966;SDS011;1493;51.496;7.210;2022-09-21T00:51:17;6.57;;;3.50;;
2966;SDS011;1493;51.496;7.210;2022-09-21T00:53:44;4.73;;;3.57;;
2966;SDS011;1493;51.496;7.210;2022-09-21T00:56:11;6.57;;;3.30;;
2966;SDS011;1493;51.496;7.210;2022-09-21T00:58:41;6.57;;;3.20;;
2966;SDS011;1493;51.496;7.210;2022-09-21T01:01:11;4.70;;;2.90;;
2966;SDS011;1493;51.496;7.210;2022-09-21T01:03:42;3.93;;;2.77;;
2966;SDS011;1493;51.496;7.210;2022-09-21T01:06:11;4.23;;;3.20;;
2966;SDS011;1493;51.496;7.210;2022-09-21T01:08:39;4.97;;;3.17;;
2966;SDS011;1493;51.496;7.210;2022-09-21T01:11:15;11.03;;;3.07;;
2966;SDS011;1493;51.496;7.210;2022-09-21T01:14:10;4.73;;;2.60;;
2966;SDS011;1493;51.496;7.210;2022-09-21T01:16:50;5.60;;;4.13;;
2966;SDS011;1493;51.496;7.210;2022-09-21T01:19:32;5.23;;;3.13;;
2966;SDS011;1493;51.496;7.210;2022-09-21T01:22:20;3.67;;;2.90;;
2966;SDS011;1493;51.496;7.210;2022-09-21T01:25:01;7.43;;;3.63;;
2966;SDS011;1493;51.496;7.210;2022-09-21T01:27:47;6.10;;;3.10;;
2966;SDS011;1493;51.496;7.210;2022-09-21T01:30:23;6.90;;;3.10;;
2966;SDS011;1493;51.496;7.210;2022-09-21T01:32:51;4.00;;;2.93;;
2966;SDS011;1493;51.496;7.210;2022-09-21T01:35:23;7.80;;;3.10;;
2966;SDS011;1493;51.496;7.210;2022-09-21T01:37:54;5.40;;;3.20;;
2966;SDS011;1493;51.496;7.210;2022-09-21T01:40:24;3.73;;;2.73;;
2966;SDS011;1493;51.496;7.210;2022-09-21T01:42:53;4.80;;;3.13;;
2966;SDS011;1493;51.496;7.210;2022-09-21T01:45:24;5.07;;;3.13;;
2966;SDS011;1493;51.496;7.210;2022-09-21T01:47:55;4.47;;;3.40;;
2966;SDS011;1493;51.496;7.210;2022-09-21T01:50:24;4.53;;;2.90;;
2966;SDS011;1493;51.496;7.210;2022-09-21T01:52:57;4.80;;;2.83;;
2966;SDS011;1493;51.496;7.210;2022-09-21T01:55:28;4.73;;;2.90;;
2966;SDS011;1493;51.496;7.210;2022-09-21T01:58:01;9.37;;;2.93;;
2966;SDS011;1493;51.496;7.210;2022-09-21T02:00:36;3.87;;;3.00;;
2966;SDS011;1493;51.496;7.210;2022-09-21T02:03:06;5.27;;;3.23;;
2966;SDS011;1493;51.496;7.210;2022-09-21T02:05:37;5.20;;;3.30;;
2966;SDS011;1493;51.496;7.210;2022-09-21T02:08:04;4.30;;;2.80;;
2966;SDS011;1493;51.496;7.210;2022-09-21T02:10:33;6.10;;;3.23;;
2966;SDS011;1493;51.496;7.210;2022-09-21T02:13:03;4.73;;;3.10;;
2966;SDS011;1493;51.496;7.210;2022-09-21T02:15:35;6.20;;;2.90;;
2966;SDS011;1493;51.496;7.210;2022-09-21T02:18:14;4.10;;;3.20;;
2966;SDS011;1493;51.496;7.210;2022-09-21T02:20:48;4.60;;;2.30;;
2966;SDS011;1493;51.496;7.210;2022-09-21T02:23:22;3.60;;;2.70;;
2966;SDS011;1493;51.496;7.210;2022-09-21T02:25:53;5.17;;;3.10;;
2966;SDS011;1493;51.496;7.210;2022-09-21T02:28:26;5.37;;;3.23;;
2966;SDS011;1493;51.496;7.210;2022-09-21T02:31:05;4.30;;;3.10;;
2966;SDS011;1493;51.496;7.210;2022-09-21T02:33:40;4.10;;;2.90;;
2966;SDS011;1493;51.496;7.210;2022-09-21T02:36:14;4.10;;;3.20;;
2966;SDS011;1493;51.496;7.210;2022-09-21T02:38:48;7.27;;;3.53;;
2966;SDS011;1493;51.496;7.210;2022-09-21T02:41:18;7.43;;;3.57;;
2966;SDS011;1493;51.496;7.210;2022-09-21T02:43:49;10.20;;;4.00;;
2966;SDS011;1493;51.496;7.210;2022-09-21T02:46:26;5.10;;;2.80;;
2966;SDS011;1493;51.496;7.210;2022-09-21T02:48:56;4.57;;;2.60;;
2966;SDS011;1493;51.496;7.210;2022-09-21T02:51:27;7.43;;;3.20;;
2966;SDS011;1493;51.496;7.210;2022-09-21T02:53:57;6.63;;;3.17;;
2966;SDS011;1493;51.496;7.210;2022-09-21T02:56:28;6.23;;;2.47;;
2966;SDS011;1493;51.496;7.210;2022-09-21T02:58:58;4.60;;;3.20;;
2966;SDS011;1493;51.496;7.210;2022-09-21T03:01:30;6.70;;;3.40;;
2966;SDS011;1493;51.496;7.210;2022-09-21T03:03:58;4.97;;;3.67;;
2966;SDS011;1493;51.496;7.210;2022-09-21T03:06:25;5.73;;;3.63;;
2966;SDS011;1493;51.496;7.210;2022-09-21T03:08:52;6.23;;;3.43;;
2966;SDS011;1493;51.496;7.210;2022-09-21T03:11:19;9.70;;;3.23;;
2966;SDS011;1493;51.496;7.210;2022-09-21T03:13:46;5.63;;;3.23;;
2966;SDS011;1493;51.496;7.210;2022-09-21T03:16:13;3.97;;;3.10;;
2966;SDS011;1493;51.496;7.210;2022-09-21T03:18:41;6.00;;;2.83;;
2966;SDS011;1493;51.496;7.210;2022-09-21T03:21:09;6.00;;;3.33;;
2966;SDS011;1493;51.496;7.210;2022-09-21T03:23:36;4.17;;;2.87;;
2966;SDS011;1493;51.496;7.210;2022-09-21T03:26:03;4.53;;;3.03;;
2966;SDS011;1493;51.496;7.210;2022-09-21T03:28:30;3.70;;;3.17;;
2966;SDS011;1493;51.496;7.210;2022-09-21T03:30:57;4.27;;;2.70;;
2966;SDS011;1493;51.496;7.210;2022-09-21T03:33:24;8.83;;;3.17;;
2966;SDS011;1493;51.496;7.210;2022-09-21T03:35:52;4.07;;;2.63;;
2966;SDS011;1493;51.496;7.210;2022-09-21T03:38:19;5.10;;;2.70;;
2966;SDS011;1493;51.496;7.210;2022-09-21T03:40:46;4.17;;;2.67;;
2966;SDS011;1493;51.496;7.210;2022-09-21T03:43:14;5.37;;;3.30;;
2966;SDS011;1493;51.496;7.210;2022-09-21T03:45:41;5.70;;;3.37;;
2966;SDS011;1493;51.496;7.210;2022-09-21T03:48:08;3.80;;;3.10;;
2966;SDS011;1493;51.496;7.210;2022-09-21T03:50:36;5.77;;;3.70;;
2966;SDS011;1493;51.496;7.210;2022-09-21T03:53:05;3.77;;;2.80;;
2966;SDS011;1493;51.496;7.210;2022-09-21T03:55:33;5.60;;;3.60;;
2966;SDS011;1493;51.496;7.210;2022-09-21T03:57:59;6.30;;;3.47;;
2966;SDS011;1493;51.496;7.210;2022-09-21T04:00:27;6.60;;;4.00;;
2966;SDS011;1493;51.496;7.210;2022-09-21T04:02:54;4.13;;;3.60;;
2966;SDS011;1493;51.496;7.210;2022-09-21T04:05:21;5.93;;;3.30;;
2966;SDS011;1493;51.496;7.210;2022-09-21T04:07:48;6.10;;;3.27;;
2966;SDS011;1493;51.496;7.210;2022-09-21T04:10:17;4.00;;;2.57;;
2966;SDS011;1493;51.496;7.210;2022-09-21T04:12:47;6.30;;;3.67;;
2966;SDS011;1493;51.496;7.210;2022-09-21T04:15:15;5.50;;;3.67;;
2966;SDS011;1493;51.496;7.210;2022-09-21T04:17:44;4.03;;;3.23;;
2966;SDS011;1493;51.496;7.210;2022-09-21T04:20:11;4.17;;;3.07;;
2966;SDS011;1493;51.496;7.210;2022-09-21T04:22:39;4.93;;;3.40;;
2966;SDS011;1493;51.496;7.210;2022-09-21T04:25:06;4.70;;;3.60;;
2966;SDS011;1493;51.496;7.210;2022-09-21T04:27:34;4.67;;;3.40;;
2966;SDS011;1493;51.496;7.210;2022-09-21T04:30:01;5.10;;;3.73;;
2966;SDS011;1493;51.496;7.210;2022-09-21T04:32:28;7.53;;;3.70;;
2966;SDS011;1493;51.496;7.210;2022-09-21T04:34:55;8.20;;;4.23;;
2966;SDS011;1493;51.496;7.210;2022-09-21T04:37:22;4.60;;;3.67;;
2966;SDS011;1493;51.496;7.210;2022-09-21T04:39:49;4.60;;;3.50;;
2966;SDS011;1493;51.496;7.210;2022-09-21T04:42:16;7.60;;;4.10;;
2966;SDS011;1493;51.496;7.210;2022-09-21T04:44:44;4.90;;;3.43;;
2966;SDS011;1493;51.496;7.210;2022-09-21T04:47:11;10.13;;;4.43;;
2966;SDS011;1493;51.496;7.210;2022-09-21T04:49:38;5.33;;;4.27;;
2966;SDS011;1493;51.496;7.210;2022-09-21T04:52:05;8.13;;;4.90;;
2966;SDS011;1493;51.496;7.210;2022-09-21T04:54:32;5.50;;;3.47;;
2966;SDS011;1493;51.496;7.210;2022-09-21T04:56:58;7.30;;;3.40;;
2966;SDS011;1493;51.496;7.210;2022-09-21T04:59:25;6.63;;;3.73;;
2966;SDS011;1493;51.496;7.210;2022-09-21T05:01:54;7.27;;;3.90;;
2966;SDS011;1493;51.496;7.210;2022-09-21T05:04:20;8.57;;;4.73;;
2966;SDS011;1493;51.496;7.210;2022-09-21T05:06:47;8.67;;;3.47;;
2966;SDS011;1493;51.496;7.210;2022-09-21T05:09:14;7.20;;;3.63;;
2966;SDS011;1493;51.496;7.210;2022-09-21T05:11:58;7.50;;;5.37;;
2966;SDS011;1493;51.496;7.210;2022-09-21T05:14:27;5.07;;;4.50;;
2966;SDS011;1493;51.496;7.210;2022-09-21T05:16:55;5.23;;;4.00;;
2966;SDS011;1493;51.496;7.210;2022-09-21T05:19:22;7.33;;;4.23;;
2966;SDS011;1493;51.496;7.210;2022-09-21T05:21:48;5.07;;;4.30;;
2966;SDS011;1493;51.496;7.210;2022-09-21T05:24:15;6.70;;;3.87;;
2966;SDS011;1493;51.496;7.210;2022-09-21T05:26:42;6.13;;;5.53;;
2966;SDS011;1493;51.496;7.210;2022-09-21T05:29:09;4.97;;;4.40;;
2966;SDS011;1493;51.496;7.210;2022-09-21T05:31:40;6.73;;;3.80;;
2966;SDS011;1493;51.496;7.210;2022-09-21T05:34:19;8.23;;;4.60;;
2966;SDS011;1493;51.496;7.210;2022-09-21T05:36:57;5.33;;;3.70;;
2966;SDS011;1493;51.496;7.210;2022-09-21T05:39:28;7.83;;;4.77;;
2966;SDS011;1493;51.496;7.210;2022-09-21T05:41:55;8.27;;;4.50;;
2966;SDS011;1493;51.496;7.210;2022-09-21T05:44:23;7.10;;;4.60;;
2966;SDS011;1493;51.496;7.210;2022-09-21T05:46:52;8.13;;;4.90;;
2966;SDS011;1493;51.496;7.210;2022-09-21T05:49:27;6.60;;;4.33;;
2966;SDS011;1493;51.496;7.210;2022-09-21T05:52:05;5.77;;;4.27;;
2966;SDS011;1493;51.496;7.210;2022-09-21T05:54:42;6.27;;;5.27;;
2966;SDS011;1493;51.496;7.210;2022-09-21T05:57:18;8.40;;;5.17;;
2966;SDS011;1493;51.496;7.210;2022-09-21T05:59:56;6.00;;;4.10;;
2966;SDS011;1493;51.496;7.210;2022-09-21T06:02:34;10.70;;;5.60;;
2966;SDS011;1493;51.496;7.210;2022-09-21T06:05:14;7.37;;;4.70;;
2966;SDS011;1493;51.496;7.210;2022-09-21T06:07:42;6.57;;;4.63;;
2966;SDS011;1493;51.496;7.210;2022-09-21T06:10:09;9.43;;;5.70;;
2966;SDS011;1493;51.496;7.210;2022-09-21T06:12:37;8.00;;;4.17;;
2966;SDS011;1493;51.496;7.210;2022-09-21T06:15:05;6.20;;;4.87;;
2966;SDS011;1493;51.496;7.210;2022-09-21T06:17:37;8.00;;;5.80;;
2966;SDS011;1493;51.496;7.210;2022-09-21T06:20:05;7.73;;;4.83;;
2966;SDS011;1493;51.496;7.210;2022-09-21T06:22:34;6.70;;;4.90;;
2966;SDS011;1493;51.496;7.210;2022-09-21T06:25:01;6.93;;;5.50;;
2966;SDS011;1493;51.496;7.210;2022-09-21T06:27:28;9.50;;;4.70;;
2966;SDS011;1493;51.496;7.210;2022-09-21T06:29:55;12.00;;;5.67;;
2966;SDS011;1493;51.496;7.210;2022-09-21T06:32:22;10.70;;;5.20;;
2966;SDS011;1493;51.496;7.210;2022-09-21T06:34:49;11.67;;;5.90;;
2966;SDS011;1493;51.496;7.210;2022-09-21T06:37:17;9.50;;;5.30;;
2966;SDS011;1493;51.496;7.210;2022-09-21T06:39:45;11.60;;;4.87;;
2966;SDS011;1493;51.496;7.210;2022-09-21T06:42:12;8.23;;;4.90;;
2966;SDS011;1493;51.496;7.210;2022-09-21T06:44:42;11.17;;;4.73;;
2966;SDS011;1493;51.496;7.210;2022-09-21T06:47:10;9.30;;;4.83;;
2966;SDS011;1493;51.496;7.210;2022-09-21T06:49:37;9.27;;;5.57;;
2966;SDS011;1493;51.496;7.210;2022-09-21T06:52:05;10.13;;;5.33;;
2966;SDS011;1493;51.496;7.210;2022-09-21T06:54:46;8.33;;;5.20;;
2966;SDS011;1493;51.496;7.210;2022-09-21T06:57:13;9.77;;;5.50;;
2966;SDS011;1493;51.496;7.210;2022-09-21T06:59:45;8.20;;;4.87;;
2966;SDS011;1493;51.496;7.210;2022-09-21T07:02:15;6.47;;;4.50;;
2966;SDS011;1493;51.496;7.210;2022-09-21T07:05:05;6.33;;;5.20;;
2966;SDS011;1493;51.496;7.210;2022-09-21T07:07:32;8.23;;;4.87;;
2966;SDS011;1493;51.496;7.210;2022-09-21T07:10:02;9.33;;;5.53;;
2966;SDS011;1493;51.496;7.210;2022-09-21T07:12:32;10.10;;;5.10;;
2966;SDS011;1493;51.496;7.210;2022-09-21T07:14:59;9.63;;;5.10;;
2966;SDS011;1493;51.496;7.210;2022-09-21T07:17:29;9.47;;;5.80;;
2966;SDS011;1493;51.496;7.210;2022-09-21T07:19:57;20.53;;;7.07;;
2966;SDS011;1493;51.496;7.210;2022-09-21T07:22:24;14.23;;;5.30;;
2966;SDS011;1493;51.496;7.210;2022-09-21T07:24:51;8.63;;;5.53;;
2966;SDS011;1493;51.496;7.210;2022-09-21T07:27:19;13.23;;;5.80;;
2966;SDS011;1493;51.496;7.210;2022-09-21T07:29:46;14.83;;;5.57;;
2966;SDS011;1493;51.496;7.210;2022-09-21T07:32:12;12.97;;;6.27;;
2966;SDS011;1493;51.496;7.210;2022-09-21T07:34:39;7.57;;;5.53;;
2966;SDS011;1493;51.496;7.210;2022-09-21T07:37:06;8.63;;;4.80;;
2966;SDS011;1493;51.496;7.210;2022-09-21T07:39:33;11.33;;;4.90;;
2966;SDS011;1493;51.496;7.210;2022-09-21T07:42:00;10.93;;;4.70;;
2966;SDS011;1493;51.496;7.210;2022-09-21T07:44:28;13.13;;;5.80;;
2966;SDS011;1493;51.496;7.210;2022-09-21T07:46:55;15.83;;;6.40;;
2966;SDS011;1493;51.496;7.210;2022-09-21T07:49:22;10.13;;;5.87;;
2966;SDS011;1493;51.496;7.210;2022-09-21T07:51:49;13.47;;;5.20;;
2966;SDS011;1493;51.496;7.210;2022-09-21T07:54:16;8.37;;;4.47;;
2966;SDS011;1493;51.496;7.210;2022-09-21T07:56:42;11.00;;;4.90;;
2966;SDS011;1493;51.496;7.210;2022-09-21T07:59:30;6.80;;;5.00;;
2966;SDS011;1493;51.496;7.210;2022-09-21T08:01:57;10.00;;;4.70;;
2966;SDS011;1493;51.496;7.210;2022-09-21T08:04:24;6.60;;;3.60;;
2966;SDS011;1493;51.496;7.210;2022-09-21T08:06:51;8.43;;;3.83;;
2966;SDS011;1493;51.496;7.210;2022-09-21T08:09:18;5.47;;;2.90;;
2966;SDS011;1493;51.496;7.210;2022-09-21T08:11:45;8.07;;;2.83;;
2966;SDS011;1493;51.496;7.210;2022-09-21T08:14:12;5.60;;;2.37;;
2966;SDS011;1493;51.496;7.210;2022-09-21T08:16:45;10.30;;;3.10;;
2966;SDS011;1493;51.496;7.210;2022-09-21T08:19:12;4.20;;;2.20;;
2966;SDS011;1493;51.496;7.210;2022-09-21T08:21:39;8.47;;;2.73;;
2966;SDS011;1493;51.496;7.210;2022-09-21T08:24:15;3.97;;;1.80;;
2966;SDS011;1493;51.496;7.210;2022-09-21T08:26:48;4.27;;;2.27;;
2966;SDS011;1493;51.496;7.210;2022-09-21T08:29:24;5.00;;;1.83;;
2966;SDS011;1493;51.496;7.210;2022-09-21T08:31:56;4.40;;;1.80;;
2966;SDS011;1493;51.496;7.210;2022-09-21T08:34:23;6.13;;;1.47;;
2966;SDS011;1493;51.496;7.210;2022-09-21T08:36:50;8.97;;;2.10;;
2966;SDS011;1493;51.496;7.210;2022-09-21T08:39:17;5.60;;;1.90;;
2966;SDS011;1493;51.496;7.210;2022-09-21T08:41:47;6.03;;;1.43;;
2966;SDS011;1493;51.496;7.210;2022-09-21T08:44:34;5.37;;;1.63;;
2966;SDS011;1493;51.496;7.210;2022-09-21T08:47:16;2.90;;;1.50;;
2966;SDS011;1493;51.496;7.210;2022-09-21T08:49:48;6.77;;;1.63;;
2966;SDS011;1493;51.496;7.210;2022-09-21T08:52:19;2.80;;;1.20;;
2966;SDS011;1493;51.496;7.210;2022-09-21T08:54:51;4.97;;;1.23;;
2966;SDS011;1493;51.496;7.210;2022-09-21T08:57:25;3.87;;;1.30;;
2966;SDS011;1493;51.496;7.210;2022-09-21T09:00:00;3.17;;;1.80;;
2966;SDS011;1493;51.496;7.210;2022-09-21T09:02:39;3.40;;;1.00;;
2966;SDS011;1493;51.496;7.210;2022-09-21T09:05:18;3.00;;;1.30;;
2966;SDS011;1493;51.496;7.210;2022-09-21T09:08:03;5.07;;;1.10;;
2966;SDS011;1493;51.496;7.210;2022-09-21T09:10:44;6.70;;;1.30;;
2966;SDS011;1493;51.496;7.210;2022-09-21T09:13:29;2.60;;;1.10;;
2966;SDS011;1493;51.496;7.210;2022-09-21T09:16:10;4.13;;;1.00;;
2966;SDS011;1493;51.496;7.210;2022-09-21T09:18:48;1.87;;;0.70;;
2966;SDS011;1493;51.496;7.210;2022-09-21T09:21:25;3.50;;;1.20;;
2966;SDS011;1493;51.496;7.210;2022-09-21T09:23:58;3.60;;;1.33;;
2966;SDS011;1493;51.496;7.210;2022-09-21T09:26:31;4.17;;;0.80;;
2966;SDS011;1493;51.496;7.210;2022-09-21T09:29:01;3.70;;;0.90;;
2966;SDS011;1493;51.496;7.210;2022-09-21T09:31:34;8.40;;;1.60;;
2966;SDS011;1493;51.496;7.210;2022-09-21T09:34:08;5.03;;;1.20;;
2966;SDS011;1493;51.496;7.210;2022-09-21T09:36:41;6.73;;;1.00;;
2966;SDS011;1493;51.496;7.210;2022-09-21T09:39:12;7.53;;;1.20;;
2966;SDS011;1493;51.496;7.210;2022-09-21T09:41:43;2.87;;;0.90;;
2966;SDS011;1493;51.496;7.210;2022-09-21T09:44:29;3.80;;;1.20;;
2966;SDS011;1493;51.496;7.210;2022-09-21T09:47:16;3.57;;;1.20;;
2966;SDS011;1493;51.496;7.210;2022-09-21T09:49:56;2.93;;;0.97;;
2966;SDS011;1493;51.496;7.210;2022-09-21T09:52:30;5.50;;;1.30;;
2966;SDS011;1493;51.496;7.210;2022-09-21T09:54:57;5.90;;;1.30;;
2966;SDS011;1493;51.496;7.210;2022-09-21T09:57:26;6.50;;;1.70;;
2966;SDS011;1493;51.496;7.210;2022-09-21T09:59:56;5.30;;;1.30;;
2966;SDS011;1493;51.496;7.210;2022-09-21T10:02:26;3.30;;;1.20;;
2966;SDS011;1493;51.496;7.210;2022-09-21T10:04:56;3.43;;;1.40;;
2966;SDS011;1493;51.496;7.210;2022-09-21T10:07:34;3.37;;;1.20;;
2966;SDS011;1493;51.496;7.210;2022-09-21T10:10:11;5.10;;;1.53;;
2966;SDS011;1493;51.496;7.210;2022-09-21T10:15:17;2.70;;;1.03;;
2966;SDS011;1493;51.496;7.210;2022-09-21T10:16:39;4.13;;;1.50;;
2966;SDS011;1493;51.496;7.210;2022-09-21T10:19:10;5.17;;;1.20;;
2966;SDS011;1493;51.496;7.210;2022-09-21T10:21:43;3.73;;;1.37;;
2966;SDS011;1493;51.496;7.210;2022-09-21T10:24:16;4.13;;;1.50;;
2966;SDS011;1493;51.496;7.210;2022-09-21T10:26:48;3.03;;;1.10;;
2966;SDS011;1493;51.496;7.210;2022-09-21T10:29:21;3.57;;;1.20;;
2966;SDS011;1493;51.496;7.210;2022-09-21T10:31:56;5.70;;;1.23;;
2966;SDS011;1493;51.496;7.210;2022-09-21T10:34:24;3.40;;;1.43;;
2966;SDS011;1493;51.496;7.210;2022-09-21T10:36:54;3.83;;;1.40;;
2966;SDS011;1493;51.496;7.210;2022-09-21T10:39:24;5.07;;;1.30;;
2966;SDS011;1493;51.496;7.210;2022-09-21T10:42:01;2.83;;;1.13;;
2966;SDS011;1493;51.496;7.210;2022-09-21T10:44:45;4.30;;;1.37;;
2966;SDS011;1493;51.496;7.210;2022-09-21T10:47:30;6.07;;;1.10;;
2966;SDS011;1493;51.496;7.210;2022-09-21T10:50:02;5.93;;;1.73;;
2966;SDS011;1493;51.496;7.210;2022-09-21T10:52:42;4.80;;;1.07;;
2966;SDS011;1493;51.496;7.210;2022-09-21T10:55:49;2.50;;;1.10;;
2966;SDS011;1493;51.496;7.210;2022-09-21T10:58:22;3.97;;;1.20;;
2966;SDS011;1493;51.496;7.210;2022-09-21T11:00:55;5.53;;;1.60;;
2966;SDS011;1493;51.496;7.210;2022-09-21T11:03:41;2.83;;;1.30;;
2966;SDS011;1493;51.496;7.210;2022-09-21T11:06:15;4.70;;;1.20;;
2966;SDS011;1493;51.496;7.210;2022-09-21T11:08:49;7.40;;;1.10;;
2966;SDS011;1493;51.496;7.210;2022-09-21T11:11:26;4.57;;;1.30;;
2966;SDS011;1493;51.496;7.210;2022-09-21T11:14:05;3.10;;;1.10;;
2966;SDS011;1493;51.496;7.210;2022-09-21T11:16:40;3.67;;;1.00;;
2966;SDS011;1493;51.496;7.210;2022-09-21T11:19:14;4.73;;;1.17;;
2966;SDS011;1493;51.496;7.210;2022-09-21T11:21:50;4.17;;;1.17;;
2966;SDS011;1493;51.496;7.210;2022-09-21T11:24:23;2.90;;;0.90;;
2966;SDS011;1493;51.496;7.210;2022-09-21T11:26:58;3.57;;;0.87;;
2966;SDS011;1493;51.496;7.210;2022-09-21T11:29:31;3.13;;;0.90;;
2966;SDS011;1493;51.496;7.210;2022-09-21T11:32:05;3.37;;;1.30;;
2966;SDS011;1493;51.496;7.210;2022-09-21T11:37:55;5.47;;;1.40;;
2966;SDS011;1493;51.496;7.210;2022-09-21T11:40:37;5.03;;;1.50;;
2966;SDS011;1493;51.496;7.210;2022-09-21T11:43:19;4.53;;;1.00;;
2966;SDS011;1493;51.496;7.210;2022-09-21T11:45:58;3.70;;;1.27;;
2966;SDS011;1493;51.496;7.210;2022-09-21T11:48:34;6.10;;;1.03;;
2966;SDS011;1493;51.496;7.210;2022-09-21T11:51:14;2.00;;;0.83;;
2966;SDS011;1493;51.496;7.210;2022-09-21T11:53:59;3.17;;;1.00;;
2966;SDS011;1493;51.496;7.210;2022-09-21T11:56:42;3.30;;;0.73;;
2966;SDS011;1493;51.496;7.210;2022-09-21T11:59:27;2.63;;;0.90;;
2966;SDS011;1493;51.496;7.210;2022-09-21T12:02:23;4.43;;;1.00;;
2966;SDS011;1493;51.496;7.210;2022-09-21T12:05:01;3.10;;;1.00;;
2966;SDS011;1493;51.496;7.210;2022-09-21T12:07:45;4.93;;;1.47;;
2966;SDS011;1493;51.496;7.210;2022-09-21T12:10:37;2.87;;;0.90;;
2966;SDS011;1493;51.496;7.210;2022-09-21T12:13:10;4.13;;;1.13;;
2966;SDS011;1493;51.496;7.210;2022-09-21T12:15:48;2.97;;;1.20;;
2966;SDS011;1493;51.496;7.210;2022-09-21T12:18:24;3.27;;;1.13;;
2966;SDS011;1493;51.496;7.210;2022-09-21T12:21:00;4.67;;;1.73;;
2966;SDS011;1493;51.496;7.210;2022-09-21T12:23:37;7.20;;;1.40;;
2966;SDS011;1493;51.496;7.210;2022-09-21T12:26:08;2.10;;;0.90;;
2966;SDS011;1493;51.496;7.210;2022-09-21T12:28:41;5.40;;;3.03;;
2966;SDS011;1493;51.496;7.210;2022-09-21T12:31:13;2.43;;;1.00;;
2966;SDS011;1493;51.496;7.210;2022-09-21T12:33:46;5.83;;;1.20;;
2966;SDS011;1493;51.496;7.210;2022-09-21T12:36:19;3.30;;;1.00;;
2966;SDS011;1493;51.496;7.210;2022-09-21T12:38:54;1.93;;;0.80;;
2966;SDS011;1493;51.496;7.210;2022-09-21T12:41:29;2.40;;;1.00;;
2966;SDS011;1493;51.496;7.210;2022-09-21T12:44:03;7.10;;;1.03;;
2966;SDS011;1493;51.496;7.210;2022-09-21T12:46:39;5.27;;;1.10;;
2966;SDS011;1493;51.496;7.210;2022-09-21T12:49:10;4.57;;;1.10;;
2966;SDS011;1493;51.496;7.210;2022-09-21T12:51:41;2.03;;;0.93;;
2966;SDS011;1493;51.496;7.210;2022-09-21T12:54:18;2.77;;;1.50;;
2966;SDS011;1493;51.496;7.210;2022-09-21T12:56:57;2.80;;;0.90;;
2966;SDS011;1493;51.496;7.210;2022-09-21T12:59:35;2.30;;;1.10;;
2966;SDS011;1493;51.496;7.210;2022-09-21T13:02:16;3.27;;;1.10;;
2966;SDS011;1493;51.496;7.210;2022-09-21T13:04:52;2.47;;;1.23;;
2966;SDS011;1493;51.496;7.210;2022-09-21T13:10:30;3.97;;;1.10;;
2966;SDS011;1493;51.496;7.210;2022-09-21T13:13:05;2.53;;;1.00;;
2966;SDS011;1493;51.496;7.210;2022-09-21T13:15:42;2.47;;;0.83;;
2966;SDS011;1493;51.496;7.210;2022-09-21T13:18:15;4.00;;;0.97;;
2966;SDS011;1493;51.496;7.210;2022-09-21T13:20:45;3.37;;;0.90;;
2966;SDS011;1493;51.496;7.210;2022-09-21T13:23:16;5.97;;;1.00;;
2966;SDS011;1493;51.496;7.210;2022-09-21T13:25:46;4.60;;;1.40;;
2966;SDS011;1493;51.496;7.210;2022-09-21T13:28:23;2.63;;;1.00;;
2966;SDS011;1493;51.496;7.210;2022-09-21T13:34:25;3.10;;;1.20;;
2966;SDS011;1493;51.496;7.210;2022-09-21T13:37:12;2.43;;;0.90;;
2966;SDS011;1493;51.496;7.210;2022-09-21T13:43:22;2.53;;;1.07;;
2966;SDS011;1493;51.496;7.210;2022-09-21T13:46:10;3.17;;;1.13;;
2966;SDS011;1493;51.496;7.210;2022-09-21T13:49:29;3.60;;;1.00;;
2966;SDS011;1493;51.496;7.210;2022-09-21T13:52:18;3.33;;;1.27;;
2966;SDS011;1493;51.496;7.210;2022-09-21T13:54:56;3.67;;;1.23;;
2966;SDS011;1493;51.496;7.210;2022-09-21T13:57:26;2.93;;;1.10;;
2966;SDS011;1493;51.496;7.210;2022-09-21T14:00:03;6.00;;;1.50;;
2966;SDS011;1493;51.496;7.210;2022-09-21T14:03:00;2.63;;;0.90;;
2966;SDS011;1493;51.496;7.210;2022-09-21T14:05:30;2.27;;;0.90;;
2966;SDS011;1493;51.496;7.210;2022-09-21T14:08:01;2.60;;;0.70;;
2966;SDS011;1493;51.496;7.210;2022-09-21T14:10:33;3.00;;;1.13;;
2966;SDS011;1493;51.496;7.210;2022-09-21T14:13:03;4.47;;;1.50;;
2966;SDS011;1493;51.496;7.210;2022-09-21T14:15:47;3.60;;;1.30;;
2966;SDS011;1493;51.496;7.210;2022-09-21T14:21:12;4.30;;;1.10;;
2966;SDS011;1493;51.496;7.210;2022-09-21T14:26:59;2.87;;;0.80;;
2966;SDS011;1493;51.496;7.210;2022-09-21T14:29:37;5.10;;;1.00;;
2966;SDS011;1493;51.496;7.210;2022-09-21T14:32:12;2.43;;;0.90;;
2966;SDS011;1493;51.496;7.210;2022-09-21T14:34:44;2.53;;;0.90;;
2966;SDS011;1493;51.496;7.210;2022-09-21T14:37:29;3.10;;;0.90;;
2966;SDS011;1493;51.496;7.210;2022-09-21T14:39:59;4.23;;;0.87;;
2966;SDS011;1493;51.496;7.210;2022-09-21T14:42:29;2.87;;;0.93;;
2966;SDS011;1493;51.496;7.210;2022-09-21T14:44:58;4.27;;;1.43;;
2966;SDS011;1493;51.496;7.210;2022-09-21T14:47:32;2.73;;;1.23;;
2966;SDS011;1493;51.496;7.210;2022-09-21T14:50:16;4.20;;;1.10;;
2966;SDS011;1493;51.496;7.210;2022-09-21T14:53:02;4.20;;;0.90;;
2966;SDS011;1493;51.496;7.210;2022-09-21T14:56:12;2.53;;;0.97;;
2966;SDS011;1493;51.496;7.210;2022-09-21T14:58:49;3.27;;;1.10;;
2966;SDS011;1493;51.496;7.210;2022-09-21T15:01:37;3.20;;;0.93;;
2966;SDS011;1493;51.496;7.210;2022-09-21T15:04:13;3.33;;;0.90;;
2966;SDS011;1493;51.496;7.210;2022-09-21T15:06:59;2.87;;;0.83;;
2966;SDS011;1493;51.496;7.210;2022-09-21T15:10:12;5.20;;;1.10;;
2966;SDS011;1493;51.496;7.210;2022-09-21T15:13:05;5.13;;;1.20;;
2966;SDS011;1493;51.496;7.210;2022-09-21T15:15:45;3.23;;;0.90;;
2966;SDS011;1493;51.496;7.210;2022-09-21T15:18:25;2.20;;;0.90;;
2966;SDS011;1493;51.496;7.210;2022-09-21T15:20:55;2.60;;;0.90;;
2966;SDS011;1493;51.496;7.210;2022-09-21T15:23:27;5.43;;;1.30;;
2966;SDS011;1493;51.496;7.210;2022-09-21T15:25:59;4.33;;;1.20;;
2966;SDS011;1493;51.496;7.210;2022-09-21T15:28:33;3.30;;;0.77;;
2966;SDS011;1493;51.496;7.210;2022-09-21T15:31:02;3.23;;;1.03;;
2966;SDS011;1493;51.496;7.210;2022-09-21T15:33:32;4.57;;;1.00;;
2966;SDS011;1493;51.496;7.210;2022-09-21T15:36:06;3.60;;;0.83;;
2966;SDS011;1493;51.496;7.210;2022-09-21T15:38:37;4.97;;;1.07;;
2966;SDS011;1493;51.496;7.210;2022-09-21T15:41:08;4.80;;;1.13;;
2966;SDS011;1493;51.496;7.210;2022-09-21T15:44:05;3.80;;;0.80;;
2966;SDS011;1493;51.496;7.210;2022-09-21T15:46:37;3.40;;;0.93;;
2966;SDS011;1493;51.496;7.210;2022-09-21T15:49:09;2.27;;;0.93;;
2966;SDS011;1493;51.496;7.210;2022-09-21T15:51:37;3.80;;;1.07;;
2966;SDS011;1493;51.496;7.210;2022-09-21T15:54:15;3.13;;;1.00;;
2966;SDS011;1493;51.496;7.210;2022-09-21T15:56:51;3.50;;;1.07;;
2966;SDS011;1493;51.496;7.210;2022-09-21T15:59:19;4.93;;;1.70;;
2966;SDS011;1493;51.496;7.210;2022-09-21T16:01:47;3.53;;;1.20;;
2966;SDS011;1493;51.496;7.210;2022-09-21T16:04:17;4.23;;;1.30;;
2966;SDS011;1493;51.496;7.210;2022-09-21T16:06:46;4.10;;;1.30;;
2966;SDS011;1493;51.496;7.210;2022-09-21T16:09:33;5.10;;;1.30;;
2966;SDS011;1493;51.496;7.210;2022-09-21T16:15:16;3.27;;;1.10;;